sensor_id;sensor_type;location;lat;lon;timestamp;temperature;humidity
21646;DHT22;10984;45.712;4.800;2022-11-15T00:00:49;12.30;99.90
21646;DHT22;10984;45.712;4.800;2022-11-15T00:03:20;12.30;99.90
21646;DHT22;10984;45.712;4.800;2022-11-15T00:05:46;12.30;99.90
21646;DHT22;10984;45.712;4.800;2022-11-15T00:08:12;12.30;99.90
21646;DHT22;10984;45.712;4.800;2022-11-15T00:10:37;12.30;99.90
21646;DHT22;10984;45.712;4.800;2022-11-15T00:13:22;12.30;99.90
21646;DHT22;10984;45.712;4.800;2022-11-15T00:15:48;12.30;99.90
21646;DHT22;10984;45.712;4.800;2022-11-15T00:18:14;12.30;99.90
21646;DHT22;10984;45.712;4.800;2022-11-15T00:20:40;12.30;99.90
21646;DHT22;10984;45.712;4.800;2022-11-15T00:23:06;12.30;99.90
21646;DHT22;10984;45.712;4.800;2022-11-15T00:25:33;12.30;99.90
21646;DHT22;10984;45.712;4.800;2022-11-15T00:27:59;12.30;99.90
21646;DHT22;10984;45.712;4.800;2022-11-15T00:30:26;12.20;99.90
21646;DHT22;10984;45.712;4.800;2022-11-15T00:32:52;12.20;99.90
21646;DHT22;10984;45.712;4.800;2022-11-15T00:35:18;12.20;99.90
21646;DHT22;10984;45.712;4.800;2022-11-15T00:37:44;12.20;99.90
21646;DHT22;10984;45.712;4.800;2022-11-15T00:40:10;12.20;99.90
21646;DHT22;10984;45.712;4.800;2022-11-15T00:42:38;12.20;99.90
21646;DHT22;10984;45.712;4.800;2022-11-15T00:45:04;12.20;99.90
21646;DHT22;10984;45.712;4.800;2022-11-15T00:47:29;12.10;99.90
21646;DHT22;10984;45.712;4.800;2022-11-15T00:49:55;12.10;99.90
21646;DHT22;10984;45.712;4.800;2022-11-15T00:52:21;12.20;99.90
21646;DHT22;10984;45.712;4.800;2022-11-15T00:54:47;12.10;99.90
21646;DHT22;10984;45.712;4.800;2022-11-15T00:57:12;12.10;99.90
21646;DHT22;10984;45.712;4.800;2022-11-15T00:59:38;12.10;99.90
21646;DHT22;10984;45.712;4.800;2022-11-15T01:02:03;12.10;99.90
21646;DHT22;10984;45.712;4.800;2022-11-15T01:04:29;12.00;99.90
21646;DHT22;10984;45.712;4.800;2022-11-15T01:06:54;12.10;99.90
21646;DHT22;10984;45.712;4.800;2022-11-15T01:09:20;12.10;99.90
21646;DHT22;10984;45.712;4.800;2022-11-15T01:11:46;12.10;99.90
21646;DHT22;10984;45.712;4.800;2022-11-15T01:14:11;12.10;99.90
21646;DHT22;10984;45.712;4.800;2022-11-15T01:16:37;12.10;99.90
21646;DHT22;10984;45.712;4.800;2022-11-15T01:19:03;12.10;99.90
21646;DHT22;10984;45.712;4.800;2022-11-15T01:21:29;12.10;99.90
21646;DHT22;10984;45.712;4.800;2022-11-15T01:23:55;12.10;99.90
21646;DHT22;10984;45.712;4.800;2022-11-15T01:26:22;12.10;99.90
21646;DHT22;10984;45.712;4.800;2022-11-15T01:28:48;12.10;99.90
21646;DHT22;10984;45.712;4.800;2022-11-15T01:31:16;12.20;99.90
21646;DHT22;10984;45.712;4.800;2022-11-15T01:33:43;12.10;99.90
21646;DHT22;10984;45.712;4.800;2022-11-15T01:36:12;12.10;99.90
21646;DHT22;10984;45.712;4.800;2022-11-15T01:38:38;12.10;99.90
21646;DHT22;10984;45.712;4.800;2022-11-15T01:41:04;12.10;99.90
21646;DHT22;10984;45.712;4.800;2022-11-15T01:43:33;12.10;99.90
21646;DHT22;10984;45.712;4.800;2022-11-15T01:48:45;12.10;99.90
21646;DHT22;10984;45.712;4.800;2022-11-15T01:51:12;12.00;99.90
21646;DHT22;10984;45.712;4.800;2022-11-15T01:53:40;12.00;99.90
21646;DHT22;10984;45.712;4.800;2022-11-15T01:56:11;12.00;99.90
21646;DHT22;10984;45.712;4.800;2022-11-15T01:58:38;12.00;99.90
21646;DHT22;10984;45.712;4.800;2022-11-15T02:01:05;12.00;99.90
21646;DHT22;10984;45.712;4.800;2022-11-15T02:03:38;11.90;99.90
21646;DHT22;10984;45.712;4.800;2022-11-15T02:06:05;12.00;99.90
21646;DHT22;10984;45.712;4.800;2022-11-15T02:08:30;11.90;99.90
21646;DHT22;10984;45.712;4.800;2022-11-15T02:10:56;11.90;99.90
21646;DHT22;10984;45.712;4.800;2022-11-15T02:13:22;11.90;99.90
21646;DHT22;10984;45.712;4.800;2022-11-15T02:37:11;11.90;99.90
21646;DHT22;10984;45.712;4.800;2022-11-15T02:42:41;11.80;99.90
21646;DHT22;10984;45.712;4.800;2022-11-15T02:45:31;11.80;99.90
21646;DHT22;10984;45.712;4.800;2022-11-15T02:47:59;11.80;99.90
21646;DHT22;10984;45.712;4.800;2022-11-15T02:50:29;11.80;99.90
21646;DHT22;10984;45.712;4.800;2022-11-15T02:52:55;11.70;99.90
21646;DHT22;10984;45.712;4.800;2022-11-15T03:22:04;11.80;99.90
21646;DHT22;10984;45.712;4.800;2022-11-15T03:24:33;11.70;99.90
21646;DHT22;10984;45.712;4.800;2022-11-15T03:27:01;11.80;99.90
21646;DHT22;10984;45.712;4.800;2022-11-15T03:29:31;11.80;99.90
21646;DHT22;10984;45.712;4.800;2022-11-15T03:32:22;11.80;99.90
21646;DHT22;10984;45.712;4.800;2022-11-15T03:35:09;11.80;99.90
21646;DHT22;10984;45.712;4.800;2022-11-15T03:37:38;11.80;99.90
21646;DHT22;10984;45.712;4.800;2022-11-15T03:40:06;11.80;99.90
21646;DHT22;10984;45.712;4.800;2022-11-15T03:45:27;11.90;99.90
21646;DHT22;10984;45.712;4.800;2022-11-15T03:48:14;11.90;99.90
21646;DHT22;10984;45.712;4.800;2022-11-15T03:50:42;11.90;99.90
21646;DHT22;10984;45.712;4.800;2022-11-15T03:53:08;11.90;99.90
21646;DHT22;10984;45.712;4.800;2022-11-15T03:55:34;11.90;99.90
21646;DHT22;10984;45.712;4.800;2022-11-15T03:58:01;11.90;99.90
21646;DHT22;10984;45.712;4.800;2022-11-15T04:00:27;11.90;99.90
21646;DHT22;10984;45.712;4.800;2022-11-15T04:02:53;11.80;99.90
21646;DHT22;10984;45.712;4.800;2022-11-15T04:05:19;11.90;99.90
21646;DHT22;10984;45.712;4.800;2022-11-15T04:07:44;11.90;99.90
21646;DHT22;10984;45.712;4.800;2022-11-15T04:10:11;11.80;99.90
21646;DHT22;10984;45.712;4.800;2022-11-15T04:12:39;11.90;99.90
21646;DHT22;10984;45.712;4.800;2022-11-15T04:15:10;11.80;99.90
21646;DHT22;10984;45.712;4.800;2022-11-15T04:20:29;11.90;99.90
21646;DHT22;10984;45.712;4.800;2022-11-15T04:26:21;11.80;99.90
21646;DHT22;10984;45.712;4.800;2022-11-15T04:28:47;11.80;99.90
21646;DHT22;10984;45.712;4.800;2022-11-15T04:31:31;11.80;99.90
21646;DHT22;10984;45.712;4.800;2022-11-15T04:33:57;11.80;99.90
21646;DHT22;10984;45.712;4.800;2022-11-15T04:36:23;11.80;99.90
21646;DHT22;10984;45.712;4.800;2022-11-15T04:39:07;11.70;99.90
21646;DHT22;10984;45.712;4.800;2022-11-15T04:41:33;11.80;99.90
21646;DHT22;10984;45.712;4.800;2022-11-15T04:43:59;11.80;99.90
21646;DHT22;10984;45.712;4.800;2022-11-15T04:46:25;11.80;99.90
21646;DHT22;10984;45.712;4.800;2022-11-15T04:48:51;11.70;99.90
21646;DHT22;10984;45.712;4.800;2022-11-15T04:51:17;11.70;99.90
21646;DHT22;10984;45.712;4.800;2022-11-15T04:53:43;11.70;99.90
21646;DHT22;10984;45.712;4.800;2022-11-15T04:56:08;11.70;99.90
21646;DHT22;10984;45.712;4.800;2022-11-15T04:58:34;11.70;99.90
21646;DHT22;10984;45.712;4.800;2022-11-15T05:01:19;11.70;99.90
21646;DHT22;10984;45.712;4.800;2022-11-15T05:03:45;11.70;99.90
21646;DHT22;10984;45.712;4.800;2022-11-15T05:06:30;11.70;99.90
21646;DHT22;10984;45.712;4.800;2022-11-15T05:08:57;11.70;99.90
21646;DHT22;10984;45.712;4.800;2022-11-15T05:11:23;11.70;99.90
21646;DHT22;10984;45.712;4.800;2022-11-15T05:13:49;11.70;99.90
21646;DHT22;10984;45.712;4.800;2022-11-15T05:16:14;11.60;99.90
21646;DHT22;10984;45.712;4.800;2022-11-15T05:18:40;11.70;99.90
21646;DHT22;10984;45.712;4.800;2022-11-15T05:21:08;11.60;99.90
21646;DHT22;10984;45.712;4.800;2022-11-15T05:23:34;11.70;99.90
21646;DHT22;10984;45.712;4.800;2022-11-15T05:26:01;11.70;99.90
21646;DHT22;10984;45.712;4.800;2022-11-15T05:28:26;11.60;99.90
21646;DHT22;10984;45.712;4.800;2022-11-15T05:30:52;11.60;99.90
21646;DHT22;10984;45.712;4.800;2022-11-15T05:33:18;11.60;99.90
21646;DHT22;10984;45.712;4.800;2022-11-15T05:35:50;11.60;99.90
21646;DHT22;10984;45.712;4.800;2022-11-15T05:38:19;11.60;99.90
21646;DHT22;10984;45.712;4.800;2022-11-15T05:40:45;11.60;99.90
21646;DHT22;10984;45.712;4.800;2022-11-15T05:43:10;11.60;99.90
21646;DHT22;10984;45.712;4.800;2022-11-15T05:45:36;11.60;99.90
21646;DHT22;10984;45.712;4.800;2022-11-15T05:48:05;11.60;99.90
21646;DHT22;10984;45.712;4.800;2022-11-15T05:50:34;11.60;99.90
21646;DHT22;10984;45.712;4.800;2022-11-15T05:53:02;11.50;99.90
21646;DHT22;10984;45.712;4.800;2022-11-15T05:55:28;11.50;99.90
21646;DHT22;10984;45.712;4.800;2022-11-15T05:57:53;11.50;99.90
21646;DHT22;10984;45.712;4.800;2022-11-15T06:00:19;11.50;99.90
21646;DHT22;10984;45.712;4.800;2022-11-15T06:02:45;11.50;99.90
21646;DHT22;10984;45.712;4.800;2022-11-15T06:05:10;11.50;99.90
21646;DHT22;10984;45.712;4.800;2022-11-15T06:07:36;11.50;99.90
21646;DHT22;10984;45.712;4.800;2022-11-15T06:10:02;11.50;99.90
21646;DHT22;10984;45.712;4.800;2022-11-15T06:12:27;11.50;99.90
21646;DHT22;10984;45.712;4.800;2022-11-15T06:14:53;11.50;99.90
21646;DHT22;10984;45.712;4.800;2022-11-15T06:17:18;11.50;99.90
21646;DHT22;10984;45.712;4.800;2022-11-15T06:19:44;11.50;99.90
21646;DHT22;10984;45.712;4.800;2022-11-15T06:22:10;11.50;99.90
21646;DHT22;10984;45.712;4.800;2022-11-15T06:24:35;11.40;99.90
21646;DHT22;10984;45.712;4.800;2022-11-15T06:27:01;11.40;99.90
21646;DHT22;10984;45.712;4.800;2022-11-15T06:29:26;11.40;99.90
21646;DHT22;10984;45.712;4.800;2022-11-15T06:31:52;11.40;99.90
21646;DHT22;10984;45.712;4.800;2022-11-15T06:34:18;11.30;99.90
21646;DHT22;10984;45.712;4.800;2022-11-15T06:36:44;11.30;99.90
21646;DHT22;10984;45.712;4.800;2022-11-15T06:39:09;11.30;99.90
21646;DHT22;10984;45.712;4.800;2022-11-15T06:41:35;11.30;99.90
21646;DHT22;10984;45.712;4.800;2022-11-15T06:44:02;11.30;99.90
21646;DHT22;10984;45.712;4.800;2022-11-15T06:46:27;11.30;99.90
21646;DHT22;10984;45.712;4.800;2022-11-15T06:48:53;11.30;99.90
21646;DHT22;10984;45.712;4.800;2022-11-15T06:51:19;11.20;99.90
21646;DHT22;10984;45.712;4.800;2022-11-15T06:53:45;11.30;99.90
21646;DHT22;10984;45.712;4.800;2022-11-15T06:56:11;11.30;99.90
21646;DHT22;10984;45.712;4.800;2022-11-15T06:58:37;11.30;99.90
21646;DHT22;10984;45.712;4.800;2022-11-15T07:01:05;11.30;99.90
21646;DHT22;10984;45.712;4.800;2022-11-15T07:03:31;11.40;99.90
21646;DHT22;10984;45.712;4.800;2022-11-15T07:05:57;11.40;99.90
21646;DHT22;10984;45.712;4.800;2022-11-15T07:08:26;11.40;99.90
21646;DHT22;10984;45.712;4.800;2022-11-15T07:10:52;11.40;99.90
21646;DHT22;10984;45.712;4.800;2022-11-15T07:13:17;11.50;99.90
21646;DHT22;10984;45.712;4.800;2022-11-15T07:15:43;11.50;99.90
21646;DHT22;10984;45.712;4.800;2022-11-15T07:18:09;11.50;99.90
21646;DHT22;10984;45.712;4.800;2022-11-15T07:20:34;11.60;99.90
21646;DHT22;10984;45.712;4.800;2022-11-15T07:23:04;11.60;99.90
21646;DHT22;10984;45.712;4.800;2022-11-15T07:25:30;11.60;99.90
21646;DHT22;10984;45.712;4.800;2022-11-15T07:28:00;11.60;99.90
21646;DHT22;10984;45.712;4.800;2022-11-15T07:30:26;11.70;99.90
21646;DHT22;10984;45.712;4.800;2022-11-15T07:35:37;11.70;99.90
21646;DHT22;10984;45.712;4.800;2022-11-15T07:38:03;11.70;99.90
21646;DHT22;10984;45.712;4.800;2022-11-15T07:40:31;11.80;99.90
21646;DHT22;10984;45.712;4.800;2022-11-15T07:43:15;11.80;99.90
21646;DHT22;10984;45.712;4.800;2022-11-15T07:46:03;11.90;99.90
21646;DHT22;10984;45.712;4.800;2022-11-15T07:48:30;11.90;99.90
21646;DHT22;10984;45.712;4.800;2022-11-15T07:50:55;12.00;99.90
21646;DHT22;10984;45.712;4.800;2022-11-15T07:53:21;12.00;99.90
21646;DHT22;10984;45.712;4.800;2022-11-15T07:55:47;12.00;99.90
21646;DHT22;10984;45.712;4.800;2022-11-15T07:58:13;12.10;99.90
21646;DHT22;10984;45.712;4.800;2022-11-15T08:00:39;12.20;99.90
21646;DHT22;10984;45.712;4.800;2022-11-15T08:03:07;12.20;99.90
21646;DHT22;10984;45.712;4.800;2022-11-15T08:05:33;12.30;99.90
21646;DHT22;10984;45.712;4.800;2022-11-15T08:07:59;12.40;99.90
21646;DHT22;10984;45.712;4.800;2022-11-15T08:10:26;12.40;99.90
21646;DHT22;10984;45.712;4.800;2022-11-15T08:13:11;12.50;99.90
21646;DHT22;10984;45.712;4.800;2022-11-15T08:15:37;12.60;99.90
21646;DHT22;10984;45.712;4.800;2022-11-15T08:18:05;12.60;99.90
21646;DHT22;10984;45.712;4.800;2022-11-15T08:20:31;12.80;99.90
21646;DHT22;10984;45.712;4.800;2022-11-15T08:22:58;12.80;99.90
21646;DHT22;10984;45.712;4.800;2022-11-15T08:25:25;12.80;99.90
21646;DHT22;10984;45.712;4.800;2022-11-15T08:27:57;12.90;99.90
21646;DHT22;10984;45.712;4.800;2022-11-15T08:30:23;13.00;99.90
21646;DHT22;10984;45.712;4.800;2022-11-15T08:32:50;13.10;99.90
21646;DHT22;10984;45.712;4.800;2022-11-15T08:35:16;13.20;99.90
21646;DHT22;10984;45.712;4.800;2022-11-15T08:37:42;13.30;99.90
21646;DHT22;10984;45.712;4.800;2022-11-15T08:40:08;13.40;99.90
21646;DHT22;10984;45.712;4.800;2022-11-15T08:42:35;13.50;99.90
21646;DHT22;10984;45.712;4.800;2022-11-15T08:45:01;13.70;99.90
21646;DHT22;10984;45.712;4.800;2022-11-15T08:47:27;13.80;99.90
21646;DHT22;10984;45.712;4.800;2022-11-15T08:49:52;13.80;99.90
21646;DHT22;10984;45.712;4.800;2022-11-15T08:52:18;13.90;99.90
21646;DHT22;10984;45.712;4.800;2022-11-15T08:54:44;14.00;99.90
21646;DHT22;10984;45.712;4.800;2022-11-15T08:57:10;14.00;99.90
21646;DHT22;10984;45.712;4.800;2022-11-15T08:59:37;14.10;99.90
21646;DHT22;10984;45.712;4.800;2022-11-15T09:02:03;14.20;99.90
21646;DHT22;10984;45.712;4.800;2022-11-15T09:04:29;14.30;99.90
21646;DHT22;10984;45.712;4.800;2022-11-15T09:06:54;14.30;99.90
21646;DHT22;10984;45.712;4.800;2022-11-15T09:09:20;14.30;99.90
21646;DHT22;10984;45.712;4.800;2022-11-15T09:11:46;14.30;99.90
21646;DHT22;10984;45.712;4.800;2022-11-15T09:14:12;14.30;99.90
21646;DHT22;10984;45.712;4.800;2022-11-15T09:16:38;14.40;99.90
21646;DHT22;10984;45.712;4.800;2022-11-15T09:19:04;14.50;99.90
21646;DHT22;10984;45.712;4.800;2022-11-15T09:21:30;14.60;99.90
21646;DHT22;10984;45.712;4.800;2022-11-15T09:23:56;14.60;99.90
21646;DHT22;10984;45.712;4.800;2022-11-15T09:26:22;14.60;99.90
21646;DHT22;10984;45.712;4.800;2022-11-15T09:28:47;14.50;99.90
21646;DHT22;10984;45.712;4.800;2022-11-15T09:31:13;14.40;99.90
21646;DHT22;10984;45.712;4.800;2022-11-15T09:33:39;14.50;99.90
21646;DHT22;10984;45.712;4.800;2022-11-15T09:36:07;14.50;99.90
21646;DHT22;10984;45.712;4.800;2022-11-15T09:38:34;14.70;99.90
21646;DHT22;10984;45.712;4.800;2022-11-15T09:50:12;15.20;99.90
21646;DHT22;10984;45.712;4.800;2022-11-15T09:52:42;15.20;99.90
21646;DHT22;10984;45.712;4.800;2022-11-15T09:55:10;15.20;99.90
21646;DHT22;10984;45.712;4.800;2022-11-15T09:57:44;15.30;99.90
21646;DHT22;10984;45.712;4.800;2022-11-15T10:06:02;15.20;99.90
21646;DHT22;10984;45.712;4.800;2022-11-15T10:11:32;15.30;99.90
21646;DHT22;10984;45.712;4.800;2022-11-15T10:20:17;15.40;99.90
21646;DHT22;10984;45.712;4.800;2022-11-15T10:25:32;15.30;99.90
21646;DHT22;10984;45.712;4.800;2022-11-15T10:31:10;15.50;99.90
21646;DHT22;10984;45.712;4.800;2022-11-15T10:33:45;15.50;99.90
21646;DHT22;10984;45.712;4.800;2022-11-15T10:38:56;15.60;99.90
21646;DHT22;10984;45.712;4.800;2022-11-15T10:41:41;15.50;99.90
21646;DHT22;10984;45.712;4.800;2022-11-15T10:46:35;15.70;99.90
21646;DHT22;10984;45.712;4.800;2022-11-15T10:49:20;15.80;99.90
21646;DHT22;10984;45.712;4.800;2022-11-15T11:00:46;16.00;99.90
21646;DHT22;10984;45.712;4.800;2022-11-15T11:03:34;16.00;99.90
21646;DHT22;10984;45.712;4.800;2022-11-15T11:06:19;15.90;99.90
21646;DHT22;10984;45.712;4.800;2022-11-15T11:09:04;15.90;99.90
21646;DHT22;10984;45.712;4.800;2022-11-15T11:11:50;15.90;99.90
21646;DHT22;10984;45.712;4.800;2022-11-15T11:47:11;16.10;99.90
21646;DHT22;10984;45.712;4.800;2022-11-15T12:15:47;15.90;99.90
21646;DHT22;10984;45.712;4.800;2022-11-15T12:18:15;15.70;99.90
21646;DHT22;10984;45.712;4.800;2022-11-15T12:23:46;15.70;99.90
21646;DHT22;10984;45.712;4.800;2022-11-15T12:26:32;15.80;99.90
21646;DHT22;10984;45.712;4.800;2022-11-15T12:29:06;15.70;99.90
21646;DHT22;10984;45.712;4.800;2022-11-15T12:46:02;15.60;99.90
21646;DHT22;10984;45.712;4.800;2022-11-15T12:48:48;15.50;99.90
21646;DHT22;10984;45.712;4.800;2022-11-15T12:51:15;15.60;99.90
21646;DHT22;10984;45.712;4.800;2022-11-15T12:53:40;15.50;99.90
21646;DHT22;10984;45.712;4.800;2022-11-15T12:59:09;15.60;99.90
21646;DHT22;10984;45.712;4.800;2022-11-15T13:01:55;15.70;99.90
21646;DHT22;10984;45.712;4.800;2022-11-15T13:07:06;15.80;99.90
21646;DHT22;10984;45.712;4.800;2022-11-15T13:09:52;15.80;99.90
21646;DHT22;10984;45.712;4.800;2022-11-15T13:21:24;16.00;99.90
21646;DHT22;10984;45.712;4.800;2022-11-15T13:24:27;16.00;99.90
21646;DHT22;10984;45.712;4.800;2022-11-15T13:26:53;16.00;99.90
21646;DHT22;10984;45.712;4.800;2022-11-15T13:29:19;16.00;99.90
21646;DHT22;10984;45.712;4.800;2022-11-15T13:31:46;16.00;99.90
21646;DHT22;10984;45.712;4.800;2022-11-15T13:34:31;15.90;99.90
21646;DHT22;10984;45.712;4.800;2022-11-15T13:37:34;15.90;99.90
21646;DHT22;10984;45.712;4.800;2022-11-15T13:40:22;15.80;99.90
21646;DHT22;10984;45.712;4.800;2022-11-15T13:42:47;15.80;99.90
21646;DHT22;10984;45.712;4.800;2022-11-15T13:45:16;15.90;99.90
21646;DHT22;10984;45.712;4.800;2022-11-15T13:47:42;15.90;99.90
21646;DHT22;10984;45.712;4.800;2022-11-15T13:50:28;15.90;99.90
21646;DHT22;10984;45.712;4.800;2022-11-15T13:52:58;15.90;99.90
21646;DHT22;10984;45.712;4.800;2022-11-15T13:55:26;15.80;99.90
21646;DHT22;10984;45.712;4.800;2022-11-15T14:06:15;15.70;99.90
21646;DHT22;10984;45.712;4.800;2022-11-15T14:08:57;15.70;99.90
21646;DHT22;10984;45.712;4.800;2022-11-15T14:11:23;15.70;99.90
21646;DHT22;10984;45.712;4.800;2022-11-15T14:16:36;15.60;99.90
21646;DHT22;10984;45.712;4.800;2022-11-15T14:19:03;15.60;99.90
21646;DHT22;10984;45.712;4.800;2022-11-15T14:21:29;15.40;99.90
21646;DHT22;10984;45.712;4.800;2022-11-15T14:24:14;15.40;99.90
21646;DHT22;10984;45.712;4.800;2022-11-15T14:26:41;15.40;99.90
21646;DHT22;10984;45.712;4.800;2022-11-15T14:29:27;15.30;99.90
21646;DHT22;10984;45.712;4.800;2022-11-15T14:31:54;15.30;99.90
21646;DHT22;10984;45.712;4.800;2022-11-15T14:34:32;15.30;99.90
21646;DHT22;10984;45.712;4.800;2022-11-15T14:36:57;15.30;99.90
21646;DHT22;10984;45.712;4.800;2022-11-15T14:39:23;15.30;99.90
21646;DHT22;10984;45.712;4.800;2022-11-15T14:41:50;15.30;99.90
21646;DHT22;10984;45.712;4.800;2022-11-15T14:44:16;15.40;99.90
21646;DHT22;10984;45.712;4.800;2022-11-15T14:46:44;15.40;99.90
21646;DHT22;10984;45.712;4.800;2022-11-15T14:49:09;15.50;99.90
21646;DHT22;10984;45.712;4.800;2022-11-15T14:51:35;15.50;99.90
21646;DHT22;10984;45.712;4.800;2022-11-15T14:54:01;15.50;99.90
21646;DHT22;10984;45.712;4.800;2022-11-15T14:56:26;15.50;99.90
21646;DHT22;10984;45.712;4.800;2022-11-15T14:58:52;15.40;99.90
21646;DHT22;10984;45.712;4.800;2022-11-15T15:01:39;15.40;99.90
21646;DHT22;10984;45.712;4.800;2022-11-15T15:04:04;15.40;99.90
21646;DHT22;10984;45.712;4.800;2022-11-15T15:06:30;15.30;99.90
21646;DHT22;10984;45.712;4.800;2022-11-15T15:08:56;15.30;99.90
21646;DHT22;10984;45.712;4.800;2022-11-15T15:14:07;15.30;99.90
21646;DHT22;10984;45.712;4.800;2022-11-15T15:16:33;15.30;99.90
21646;DHT22;10984;45.712;4.800;2022-11-15T15:18:59;15.20;99.90
21646;DHT22;10984;45.712;4.800;2022-11-15T15:21:26;15.20;99.90
21646;DHT22;10984;45.712;4.800;2022-11-15T15:23:53;15.10;99.90
21646;DHT22;10984;45.712;4.800;2022-11-15T15:26:19;15.10;99.90
21646;DHT22;10984;45.712;4.800;2022-11-15T15:28:45;15.10;99.90
21646;DHT22;10984;45.712;4.800;2022-11-15T15:31:11;15.10;99.90
21646;DHT22;10984;45.712;4.800;2022-11-15T15:33:37;15.00;99.90
21646;DHT22;10984;45.712;4.800;2022-11-15T15:36:03;15.00;99.90
21646;DHT22;10984;45.712;4.800;2022-11-15T15:38:29;15.00;99.90
21646;DHT22;10984;45.712;4.800;2022-11-15T15:40:55;14.90;99.90
21646;DHT22;10984;45.712;4.800;2022-11-15T15:43:21;14.80;99.90
21646;DHT22;10984;45.712;4.800;2022-11-15T15:45:47;14.90;99.90
21646;DHT22;10984;45.712;4.800;2022-11-15T15:48:14;14.80;99.90
21646;DHT22;10984;45.712;4.800;2022-11-15T15:50:40;14.80;99.90
21646;DHT22;10984;45.712;4.800;2022-11-15T15:53:09;14.80;99.90
21646;DHT22;10984;45.712;4.800;2022-11-15T15:55:36;14.70;99.90
21646;DHT22;10984;45.712;4.800;2022-11-15T15:58:03;14.70;99.90
21646;DHT22;10984;45.712;4.800;2022-11-15T16:00:28;14.70;99.90
21646;DHT22;10984;45.712;4.800;2022-11-15T16:02:54;14.60;99.90
21646;DHT22;10984;45.712;4.800;2022-11-15T16:05:21;14.60;99.90
21646;DHT22;10984;45.712;4.800;2022-11-15T16:07:47;14.70;99.90
21646;DHT22;10984;45.712;4.800;2022-11-15T16:10:32;14.70;99.90
21646;DHT22;10984;45.712;4.800;2022-11-15T16:12:59;14.70;99.90
21646;DHT22;10984;45.712;4.800;2022-11-15T16:15:27;14.60;99.90
21646;DHT22;10984;45.712;4.800;2022-11-15T16:17:56;14.60;99.90
21646;DHT22;10984;45.712;4.800;2022-11-15T16:23:11;14.60;99.90
21646;DHT22;10984;45.712;4.800;2022-11-15T16:28:42;14.60;99.90
21646;DHT22;10984;45.712;4.800;2022-11-15T16:31:10;14.60;99.90
21646;DHT22;10984;45.712;4.800;2022-11-15T16:33:36;14.60;99.90
21646;DHT22;10984;45.712;4.800;2022-11-15T16:36:03;14.60;99.90
21646;DHT22;10984;45.712;4.800;2022-11-15T16:38:29;14.60;99.90
21646;DHT22;10984;45.712;4.800;2022-11-15T16:40:55;14.60;99.90
21646;DHT22;10984;45.712;4.800;2022-11-15T16:43:20;14.60;99.90
21646;DHT22;10984;45.712;4.800;2022-11-15T16:45:48;14.60;99.90
21646;DHT22;10984;45.712;4.800;2022-11-15T16:48:33;14.60;99.90
21646;DHT22;10984;45.712;4.800;2022-11-15T16:50:59;14.60;99.90
21646;DHT22;10984;45.712;4.800;2022-11-15T16:53:26;14.60;99.90
21646;DHT22;10984;45.712;4.800;2022-11-15T16:55:53;14.50;99.90
21646;DHT22;10984;45.712;4.800;2022-11-15T16:58:19;14.50;99.90
21646;DHT22;10984;45.712;4.800;2022-11-15T17:00:48;14.50;99.90
21646;DHT22;10984;45.712;4.800;2022-11-15T17:03:14;14.50;99.90
21646;DHT22;10984;45.712;4.800;2022-11-15T17:05:40;14.40;99.90
21646;DHT22;10984;45.712;4.800;2022-11-15T17:08:07;14.40;99.90
21646;DHT22;10984;45.712;4.800;2022-11-15T17:10:33;14.40;99.90
21646;DHT22;10984;45.712;4.800;2022-11-15T17:12:58;14.40;99.90
21646;DHT22;10984;45.712;4.800;2022-11-15T17:15:24;14.40;99.90
21646;DHT22;10984;45.712;4.800;2022-11-15T17:17:51;14.40;99.90
21646;DHT22;10984;45.712;4.800;2022-11-15T17:20:18;14.40;99.90
21646;DHT22;10984;45.712;4.800;2022-11-15T17:22:44;14.40;99.90
21646;DHT22;10984;45.712;4.800;2022-11-15T17:25:12;14.40;99.90
21646;DHT22;10984;45.712;4.800;2022-11-15T17:27:38;14.40;99.90
21646;DHT22;10984;45.712;4.800;2022-11-15T17:30:04;14.40;99.90
21646;DHT22;10984;45.712;4.800;2022-11-15T17:32:30;14.40;99.90
21646;DHT22;10984;45.712;4.800;2022-11-15T17:34:56;14.40;99.90
21646;DHT22;10984;45.712;4.800;2022-11-15T17:37:21;14.50;99.90
21646;DHT22;10984;45.712;4.800;2022-11-15T17:39:47;14.40;99.90
21646;DHT22;10984;45.712;4.800;2022-11-15T17:42:13;14.40;99.90
21646;DHT22;10984;45.712;4.800;2022-11-15T17:44:38;14.40;99.90
21646;DHT22;10984;45.712;4.800;2022-11-15T17:47:04;14.40;99.90
21646;DHT22;10984;45.712;4.800;2022-11-15T17:49:29;14.40;99.90
21646;DHT22;10984;45.712;4.800;2022-11-15T17:51:55;14.40;99.90
21646;DHT22;10984;45.712;4.800;2022-11-15T17:54:21;14.40;99.90
21646;DHT22;10984;45.712;4.800;2022-11-15T17:56:46;14.30;99.90
21646;DHT22;10984;45.712;4.800;2022-11-15T17:59:12;14.30;99.90
21646;DHT22;10984;45.712;4.800;2022-11-15T18:01:38;14.40;99.90
21646;DHT22;10984;45.712;4.800;2022-11-15T18:04:07;14.50;99.90
21646;DHT22;10984;45.712;4.800;2022-11-15T18:06:34;14.50;99.90
21646;DHT22;10984;45.712;4.800;2022-11-15T18:09:01;14.50;99.90
21646;DHT22;10984;45.712;4.800;2022-11-15T18:11:46;14.60;99.90
21646;DHT22;10984;45.712;4.800;2022-11-15T18:14:16;14.60;99.90
21646;DHT22;10984;45.712;4.800;2022-11-15T18:16:42;14.70;99.90
21646;DHT22;10984;45.712;4.800;2022-11-15T18:19:09;14.70;99.90
21646;DHT22;10984;45.712;4.800;2022-11-15T18:21:53;14.70;99.90
21646;DHT22;10984;45.712;4.800;2022-11-15T18:24:37;14.60;99.90
21646;DHT22;10984;45.712;4.800;2022-11-15T18:27:04;14.70;99.90
21646;DHT22;10984;45.712;4.800;2022-11-15T18:29:30;14.70;99.90
21646;DHT22;10984;45.712;4.800;2022-11-15T18:31:56;14.60;99.90
21646;DHT22;10984;45.712;4.800;2022-11-15T18:34:27;14.60;99.90
21646;DHT22;10984;45.712;4.800;2022-11-15T18:37:11;14.50;99.90
21646;DHT22;10984;45.712;4.800;2022-11-15T18:39:37;14.40;99.90
21646;DHT22;10984;45.712;4.800;2022-11-15T18:42:03;14.40;99.90
21646;DHT22;10984;45.712;4.800;2022-11-15T18:44:29;14.40;99.90
21646;DHT22;10984;45.712;4.800;2022-11-15T18:46:55;14.40;99.90
21646;DHT22;10984;45.712;4.800;2022-11-15T18:49:20;14.40;99.90
21646;DHT22;10984;45.712;4.800;2022-11-15T18:51:47;14.40;99.90
21646;DHT22;10984;45.712;4.800;2022-11-15T18:54:14;14.40;99.90
21646;DHT22;10984;45.712;4.800;2022-11-15T18:56:41;14.40;99.90
21646;DHT22;10984;45.712;4.800;2022-11-15T18:59:08;14.40;99.90
21646;DHT22;10984;45.712;4.800;2022-11-15T19:01:53;14.40;99.90
21646;DHT22;10984;45.712;4.800;2022-11-15T19:04:20;14.40;99.90
21646;DHT22;10984;45.712;4.800;2022-11-15T19:06:48;14.40;99.90
21646;DHT22;10984;45.712;4.800;2022-11-15T19:09:16;14.30;99.90
21646;DHT22;10984;45.712;4.800;2022-11-15T19:11:43;14.30;99.90
21646;DHT22;10984;45.712;4.800;2022-11-15T19:14:27;14.20;99.90
21646;DHT22;10984;45.712;4.800;2022-11-15T19:16:53;14.20;99.90
21646;DHT22;10984;45.712;4.800;2022-11-15T19:19:38;14.20;99.90